Terminal Aerodrome Forecast
Issued by NWS Green Bay, WI

Home | Current Version | Previous Version | Text Only | Print | Product List | Glossary On
Versions: 1 2 3 4 5 6 7 8 9 10 11 12 13 14 15 16 17 18 19 20 21 22 23 24 25 26 27 28 29 30 31 32 33 34
000
FTUS43 KGRB 230500 AAA
TAFGRB
TAF AMD
KGRB 230559Z 2306/2406 16003KT 6SM BR SCT090
      TEMPO 2306/2308 4SM BR
     FM230800 16004KT 6SM BR SCT070 BKN250
      TEMPO 2308/2312 3SM BR
     FM231500 18007KT P6SM SCT035 OVC050
     FM231900 19009KT 5SM -SHRA OVC015
     FM240100 22004KT 3SM BR OVC012=

USA.gov is the U.S. government's official web portal to all federal, state and local government web resources and services.